Time;durP1;ratioP1;P1;durP2;ratioP2;P2;SDS_P1;SDS_P2;PMS_P1;PMS_P2;Temp;Humidity;BMP_temperature;BMP_pressure;BME280_temperature;BME280_humidity;BME280_pressure;Samples;Min_cycle;Max_cycle;Signal;HPM_P1;HPM_P2
2022/08/10 00:00:21;;;;;;;2.50;1.77;;;;;;;;;;5040212;28;20201;-68
2022/08/10 00:02:47;;;;;;;1.77;1.50;;;;;;;;;;5040050;28;20498;-68
2022/08/10 00:05:15;;;;;;;1.73;1.60;;;;;;;;;;5039749;28;20225;-68
2022/08/10 00:07:42;;;;;;;1.40;1.40;;;;;;;;;;5039879;28;20198;-68
2022/08/10 00:10:09;;;;;;;1.90;1.80;;;;;;;;;;5040061;28;20520;-68
2022/08/10 00:12:35;;;;;;;2.38;1.73;;;;;;;;;;5040008;28;20198;-69
2022/08/10 00:15:01;;;;;;;1.73;1.63;;;;;;;;;;5040119;28;20205;-69
2022/08/10 00:17:28;;;;;;;1.65;1.52;;;;;;;;;;5039572;28;20201;-69
2022/08/10 00:19:54;;;;;;;2.00;1.60;;;;;;;;;;5039730;28;20243;-69
2022/08/10 00:22:21;;;;;;;2.28;1.50;;;;;;;;;;5039669;28;20202;-69
2022/08/10 00:24:48;;;;;;;2.17;1.55;;;;;;;;;;5039674;28;20206;-69
2022/08/10 00:27:14;;;;;;;2.72;1.50;;;;;;;;;;5039505;28;20274;-69
2022/08/10 00:29:40;;;;;;;1.38;1.27;;;;;;;;;;5039806;28;20508;-70
2022/08/10 00:32:07;;;;;;;1.70;1.58;;;;;;;;;;5039551;28;20197;-70
2022/08/10 00:34:34;;;;;;;1.50;1.50;;;;;;;;;;5039507;28;20198;-70
2022/08/10 00:37:00;;;;;;;1.55;1.33;;;;;;;;;;5039569;28;20238;-70
2022/08/10 00:39:28;;;;;;;1.58;1.58;;;;;;;;;;5039604;28;20198;-69
2022/08/10 00:41:54;;;;;;;2.35;1.40;;;;;;;;;;5039551;28;20498;-69
2022/08/10 00:44:21;;;;;;;3.25;1.33;;;;;;;;;;5039484;28;20204;-69
2022/08/10 00:46:47;;;;;;;3.42;1.50;;;;;;;;;;5039088;28;20221;-69
2022/08/10 00:49:13;;;;;;;2.47;1.52;;;;;;;;;;5039692;28;20202;-69
2022/08/10 00:51:40;;;;;;;1.90;1.42;;;;;;;;;;5039373;28;20208;-69
2022/08/10 00:54:06;;;;;;;1.23;1.23;;;;;;;;;;5039537;28;20497;-69
2022/08/10 00:56:34;;;;;;;1.60;1.60;;;;;;;;;;5039116;28;20194;-69
2022/08/10 00:59:00;;;;;;;1.60;1.50;;;;;;;;;;5039310;28;20201;-69
2022/08/10 01:01:26;;;;;;;1.77;1.50;;;;;;;;;;5039202;28;20205;-69
2022/08/10 01:03:53;;;;;;;1.48;1.40;;;;;;;;;;5039189;28;20198;-69
2022/08/10 01:06:24;;;;;;;4.45;1.70;;;;;;;;;;5038911;28;20221;-69
2022/08/10 01:08:51;;;;;;;3.10;1.58;;;;;;;;;;5039379;28;20198;-69
2022/08/10 01:11:20;;;;;;;2.53;1.40;;;;;;;;;;5039186;28;20411;-69
2022/08/10 01:13:53;;;;;;;6.43;1.52;;;;;;;;;;5039158;28;20225;-69
2022/08/10 01:16:22;;;;;;;1.35;1.25;;;;;;;;;;5039207;28;20502;-69
2022/08/10 01:18:52;;;;;;;1.45;1.40;;;;;;;;;;5039328;28;20204;-69
2022/08/10 01:21:39;;;;;;;2.05;1.30;;;;;;;;;;5039133;28;20234;-69
2022/08/10 01:24:21;;;;;;;1.48;1.38;;;;;;;;;;5039056;28;20206;-69
2022/08/10 01:26:53;;;;;;;1.25;1.25;;;;;;;;;;5038823;28;20217;-69
2022/08/10 01:29:38;;;;;;;1.70;1.60;;;;;;;;;;5039121;28;20501;-69
2022/08/10 01:32:05;;;;;;;1.50;1.20;;;;;;;;;;5038964;28;20540;-69
2022/08/10 01:34:33;;;;;;;1.58;1.58;;;;;;;;;;5040152;28;20301;-69
2022/08/10 01:37:02;;;;;;;2.40;1.50;;;;;;;;;;5042025;28;20231;-69
2022/08/10 01:39:30;;;;;;;1.50;1.23;;;;;;;;;;5042409;28;20198;-69
2022/08/10 01:41:57;;;;;;;1.70;1.60;;;;;;;;;;5042321;28;20202;-69
2022/08/10 01:44:28;;;;;;;3.30;1.40;;;;;;;;;;5042217;28;20205;-69
2022/08/10 01:48:27;;;;;;;2.17;1.60;;;;;;;;;;5041790;28;20214;-69
2022/08/10 01:49:42;;;;;;;1.60;1.50;;;;;;;;;;5041838;28;20193;-69
2022/08/10 01:52:09;;;;;;;1.48;1.48;;;;;;;;;;5041956;28;20309;-69
2022/08/10 01:54:35;;;;;;;1.50;1.40;;;;;;;;;;5041916;28;20206;-69
2022/08/10 01:57:01;;;;;;;2.25;1.48;;;;;;;;;;5041319;28;20202;-69
2022/08/10 01:59:31;;;;;;;1.63;1.52;;;;;;;;;;5042222;28;20373;-69
2022/08/10 02:01:59;;;;;;;1.88;1.70;;;;;;;;;;5041984;28;20206;-69
2022/08/10 02:04:29;;;;;;;1.60;1.60;;;;;;;;;;5041795;28;20278;-69
2022/08/10 02:06:55;;;;;;;4.45;1.50;;;;;;;;;;5041540;28;20243;-69
2022/08/10 02:09:24;;;;;;;1.65;1.42;;;;;;;;;;5041891;28;20259;-69
2022/08/10 02:11:51;;;;;;;1.65;1.55;;;;;;;;;;5041922;28;20242;-69
2022/08/10 02:14:18;;;;;;;2.05;1.27;;;;;;;;;;5041868;28;20235;-69
2022/08/10 02:16:45;;;;;;;1.50;1.40;;;;;;;;;;5041290;28;20403;-69
2022/08/10 02:19:15;;;;;;;1.63;1.63;;;;;;;;;;5041703;28;20435;-69
2022/08/10 02:21:42;;;;;;;2.40;1.80;;;;;;;;;;5041578;28;20219;-69
2022/08/10 02:24:12;;;;;;;1.98;1.88;;;;;;;;;;5041345;28;20198;-69
2022/08/10 02:26:39;;;;;;;1.70;1.60;;;;;;;;;;5041577;28;20408;-69
2022/08/10 02:29:07;;;;;;;2.33;1.70;;;;;;;;;;5041692;28;20434;-69
2022/08/10 02:31:34;;;;;;;1.98;1.50;;;;;;;;;;5041750;28;20243;-69
2022/08/10 02:34:02;;;;;;;2.67;1.80;;;;;;;;;;5041406;28;20198;-69
2022/08/10 02:36:32;;;;;;;1.83;1.83;;;;;;;;;;5041667;28;20239;-69
2022/08/10 02:39:01;;;;;;;1.13;1.13;;;;;;;;;;5041638;28;20505;-69
2022/08/10 02:41:32;;;;;;;1.60;1.50;;;;;;;;;;5041505;28;20205;-70
2022/08/10 02:44:02;;;;;;;2.30;1.60;;;;;;;;;;5041532;28;20198;-69
2022/08/10 02:46:34;;;;;;;1.77;1.67;;;;;;;;;;5040723;28;20263;-69
2022/08/10 02:49:01;;;;;;;2.88;1.42;;;;;;;;;;5041194;28;20206;-69
2022/08/10 02:51:33;;;;;;;2.13;1.35;;;;;;;;;;5041400;28;20273;-69
2022/08/10 02:54:03;;;;;;;1.48;1.42;;;;;;;;;;5041229;28;20243;-69
2022/08/10 02:56:34;;;;;;;1.63;1.52;;;;;;;;;;5041344;28;20504;-69
2022/08/10 02:59:04;;;;;;;1.50;1.40;;;;;;;;;;5041158;28;20249;-69
2022/08/10 03:01:33;;;;;;;1.90;1.55;;;;;;;;;;5040994;28;20528;-69
2022/08/10 03:04:01;;;;;;;2.35;1.75;;;;;;;;;;5041253;28;20250;-69
2022/08/10 03:06:33;;;;;;;1.77;1.67;;;;;;;;;;5040663;28;20270;-69
2022/08/10 03:08:59;;;;;;;1.55;1.38;;;;;;;;;;5041241;28;20414;-69
2022/08/10 03:11:28;;;;;;;1.67;1.58;;;;;;;;;;5041017;28;20198;-69
2022/08/10 03:13:55;;;;;;;2.00;1.45;;;;;;;;;;5041317;28;20198;-69
2022/08/10 03:16:22;;;;;;;3.90;1.70;;;;;;;;;;5040975;28;20197;-69
2022/08/10 03:18:49;;;;;;;3.08;1.70;;;;;;;;;;5041025;28;20201;-69
2022/08/10 03:21:16;;;;;;;1.85;1.27;;;;;;;;;;5041043;28;20251;-69
2022/08/10 03:23:44;;;;;;;1.52;1.42;;;;;;;;;;5040888;28;20367;-69
2022/08/10 03:26:11;;;;;;;2.10;2.00;;;;;;;;;;5040669;28;20221;-69
2022/08/10 03:28:38;;;;;;;1.38;1.38;;;;;;;;;;5040553;28;20307;-69
2022/08/10 03:31:04;;;;;;;1.70;1.60;;;;;;;;;;5040725;28;20244;-69
2022/08/10 03:33:33;;;;;;;1.85;1.75;;;;;;;;;;5040693;28;20424;-70
2022/08/10 03:35:59;;;;;;;1.45;1.38;;;;;;;;;;5040448;28;20202;-69
2022/08/10 03:38:26;;;;;;;1.50;1.40;;;;;;;;;;5040593;28;20438;-69
2022/08/10 03:40:55;;;;;;;2.03;1.92;;;;;;;;;;5040287;28;20240;-69
2022/08/10 03:43:22;;;;;;;1.55;1.42;;;;;;;;;;5040925;28;20202;-69
2022/08/10 03:45:50;;;;;;;1.42;1.33;;;;;;;;;;5040708;28;20201;-69
2022/08/10 03:48:17;;;;;;;1.85;1.75;;;;;;;;;;5039995;28;20222;-69
2022/08/10 03:50:43;;;;;;;2.67;1.48;;;;;;;;;;5040257;28;20432;-69
2022/08/10 03:53:10;;;;;;;1.70;1.60;;;;;;;;;;5040246;28;20210;-69
2022/08/10 03:55:36;;;;;;;1.60;1.50;;;;;;;;;;5040265;28;20530;-69
2022/08/10 03:58:04;;;;;;;3.65;1.77;;;;;;;;;;5039481;28;20219;-69
2022/08/10 04:00:33;;;;;;;2.25;1.70;;;;;;;;;;5040321;28;20198;-69
2022/08/10 04:03:01;;;;;;;1.77;1.77;;;;;;;;;;5040036;28;20546;-69
2022/08/10 04:05:27;;;;;;;4.38;1.60;;;;;;;;;;5040019;28;20262;-69
2022/08/10 04:07:54;;;;;;;1.67;1.58;;;;;;;;;;5039766;28;20266;-69
2022/08/10 04:10:20;;;;;;;3.13;1.70;;;;;;;;;;5040178;28;20209;-69
2022/08/10 04:12:46;;;;;;;1.95;1.60;;;;;;;;;;5040173;28;20198;-69
2022/08/10 04:15:14;;;;;;;1.88;1.75;;;;;;;;;;5040127;28;20243;-69
2022/08/10 04:17:40;;;;;;;1.80;1.75;;;;;;;;;;5039725;28;20239;-69
2022/08/10 04:20:08;;;;;;;1.63;1.60;;;;;;;;;;5040058;28;20206;-69
2022/08/10 04:22:35;;;;;;;1.73;1.63;;;;;;;;;;5039678;28;20240;-68
2022/08/10 04:25:03;;;;;;;2.90;1.52;;;;;;;;;;5040089;28;20251;-68
2022/08/10 04:27:30;;;;;;;1.73;1.63;;;;;;;;;;5039600;28;20267;-68
2022/08/10 04:29:57;;;;;;;1.95;1.85;;;;;;;;;;5039758;28;20536;-68
2022/08/10 04:32:26;;;;;;;2.03;1.75;;;;;;;;;;5040072;28;20243;-68
2022/08/10 04:34:55;;;;;;;1.80;1.80;;;;;;;;;;5039711;28;20202;-68
2022/08/10 04:37:23;;;;;;;1.90;1.80;;;;;;;;;;5039195;28;20546;-68
2022/08/10 04:39:49;;;;;;;1.83;1.73;;;;;;;;;;5039688;28;20440;-68
2022/08/10 04:42:15;;;;;;;1.90;1.80;;;;;;;;;;5039582;28;20190;-68
2022/08/10 04:44:42;;;;;;;2.25;1.70;;;;;;;;;;5039717;28;20376;-68
2022/08/10 04:47:08;;;;;;;3.70;2.15;;;;;;;;;;5039210;28;20214;-68
2022/08/10 04:49:36;;;;;;;2.30;2.20;;;;;;;;;;5039462;28;20202;-68
2022/08/10 04:52:02;;;;;;;3.03;2.15;;;;;;;;;;5039479;28;20418;-68
2022/08/10 04:54:28;;;;;;;1.80;1.80;;;;;;;;;;5039248;28;20540;-68
2022/08/10 04:56:54;;;;;;;2.25;2.15;;;;;;;;;;5039000;28;20246;-68
2022/08/10 04:59:21;;;;;;;2.17;2.08;;;;;;;;;;5039320;28;20202;-69
2022/08/10 05:01:48;;;;;;;2.00;1.90;;;;;;;;;;5039320;28;20214;-69
2022/08/10 05:04:14;;;;;;;2.17;2.08;;;;;;;;;;5039168;28;20197;-69
2022/08/10 05:06:42;;;;;;;2.08;1.98;;;;;;;;;;5038715;28;20266;-69
2022/08/10 05:09:08;;;;;;;1.73;1.63;;;;;;;;;;5041998;28;20218;-69
2022/08/10 05:11:34;;;;;;;2.35;1.77;;;;;;;;;;5042882;28;20236;-69
2022/08/10 05:14:01;;;;;;;4.50;1.73;;;;;;;;;;5042283;28;20424;-70
2022/08/10 05:16:27;;;;;;;1.90;1.80;;;;;;;;;;5041996;28;20382;-69
2022/08/10 05:18:53;;;;;;;3.22;1.95;;;;;;;;;;5041994;28;20213;-69
2022/08/10 05:21:19;;;;;;;2.45;1.60;;;;;;;;;;5042087;28;20243;-69
2022/08/10 05:23:47;;;;;;;2.47;1.70;;;;;;;;;;5042292;28;20198;-69
2022/08/10 05:26:13;;;;;;;2.70;2.28;;;;;;;;;;5041768;28;20252;-69
2022/08/10 05:28:39;;;;;;;4.80;2.53;;;;;;;;;;5041866;28;20221;-69
2022/08/10 05:31:06;;;;;;;5.60;2.97;;;;;;;;;;5042402;28;20501;-70
2022/08/10 05:33:32;;;;;;;4.70;2.60;;;;;;;;;;5041878;28;20540;-70
2022/08/10 05:35:59;;;;;;;4.10;2.83;;;;;;;;;;5041759;28;20266;-70
2022/08/10 05:38:26;;;;;;;3.75;3.35;;;;;;;;;;5041832;28;20547;-70
2022/08/10 05:40:53;;;;;;;4.78;3.60;;;;;;;;;;5041767;28;20202;-70
2022/08/10 05:43:20;;;;;;;5.53;3.35;;;;;;;;;;5041780;28;20243;-70
2022/08/10 05:45:47;;;;;;;6.18;3.70;;;;;;;;;;5042520;28;20556;-70
2022/08/10 05:48:14;;;;;;;3.55;3.25;;;;;;;;;;5045638;28;20218;-69
2022/08/10 05:50:40;;;;;;;3.55;2.95;;;;;;;;;;5041805;28;20205;-68
2022/08/10 05:53:06;;;;;;;5.55;3.60;;;;;;;;;;5041627;28;20251;-68
2022/08/10 05:55:33;;;;;;;5.57;3.20;;;;;;;;;;5041529;28;20235;-69
2022/08/10 05:58:00;;;;;;;4.60;3.20;;;;;;;;;;5041036;28;20224;-68
2022/08/10 06:00:27;;;;;;;4.38;2.80;;;;;;;;;;5041453;28;20201;-69
2022/08/10 06:02:55;;;;;;;3.63;3.03;;;;;;;;;;5041447;28;20205;-70
2022/08/10 06:05:23;;;;;;;2.65;2.45;;;;;;;;;;5041391;28;20606;-69
2022/08/10 06:07:52;;;;;;;2.70;2.50;;;;;;;;;;5040783;28;20421;-69
2022/08/10 06:10:20;;;;;;;5.15;2.42;;;;;;;;;;5041408;28;20213;-69
2022/08/10 06:12:47;;;;;;;5.40;2.50;;;;;;;;;;5041476;28;20561;-69
2022/08/10 06:15:14;;;;;;;2.13;2.03;;;;;;;;;;5041550;28;20244;-69
2022/08/10 06:17:41;;;;;;;5.35;2.65;;;;;;;;;;5041292;28;20194;-69
2022/08/10 06:20:08;;;;;;;2.88;2.63;;;;;;;;;;5040920;28;20198;-69
2022/08/10 06:22:34;;;;;;;8.63;2.40;;;;;;;;;;5041328;28;20501;-69
2022/08/10 06:25:01;;;;;;;2.78;2.05;;;;;;;;;;5041103;28;20422;-69
2022/08/10 06:27:28;;;;;;;2.40;2.20;;;;;;;;;;5040951;28;20222;-69
2022/08/10 06:29:55;;;;;;;4.40;2.40;;;;;;;;;;5041025;28;20552;-69
2022/08/10 06:32:24;;;;;;;1.70;1.60;;;;;;;;;;5041049;28;20198;-69
2022/08/10 06:34:52;;;;;;;2.38;1.70;;;;;;;;;;5041226;28;20520;-69
2022/08/10 06:37:20;;;;;;;3.33;1.40;;;;;;;;;;5040895;28;20194;-69
2022/08/10 06:39:47;;;;;;;4.40;1.65;;;;;;;;;;5040833;28;20463;-69
2022/08/10 06:42:15;;;;;;;1.75;1.63;;;;;;;;;;5040684;28;20268;-70
2022/08/10 06:44:46;;;;;;;1.83;1.73;;;;;;;;;;5040927;28;20235;-70
2022/08/10 06:47:13;;;;;;;2.38;1.38;;;;;;;;;;5040426;28;20222;-70
2022/08/10 06:49:40;;;;;;;4.13;1.80;;;;;;;;;;5040580;28;20251;-70
2022/08/10 06:52:09;;;;;;;2.88;2.00;;;;;;;;;;5040639;28;20374;-70
2022/08/10 06:54:36;;;;;;;6.72;2.55;;;;;;;;;;5040580;28;20251;-70
2022/08/10 06:57:03;;;;;;;3.58;1.55;;;;;;;;;;5040354;28;20485;-70
2022/08/10 06:59:32;;;;;;;1.85;1.40;;;;;;;;;;5040595;28;20202;-70
2022/08/10 07:01:59;;;;;;;2.38;1.30;;;;;;;;;;5040457;28;20223;-70
2022/08/10 07:04:26;;;;;;;3.30;2.25;;;;;;;;;;5040426;28;20246;-70
2022/08/10 07:06:55;;;;;;;1.27;1.27;;;;;;;;;;5040193;28;20198;-70
2022/08/10 07:09:21;;;;;;;2.75;2.13;;;;;;;;;;5040146;28;20349;-70
2022/08/10 07:11:48;;;;;;;2.83;1.30;;;;;;;;;;5040279;28;20197;-70
2022/08/10 07:14:16;;;;;;;2.25;1.70;;;;;;;;;;5040099;28;20206;-70
2022/08/10 07:16:44;;;;;;;2.45;1.52;;;;;;;;;;5040421;28;20201;-69
2022/08/10 07:19:11;;;;;;;1.40;1.30;;;;;;;;;;5040318;28;20557;-69
2022/08/10 07:21:38;;;;;;;4.45;2.03;;;;;;;;;;5040051;28;20228;-69
2022/08/10 07:24:08;;;;;;;1.92;1.77;;;;;;;;;;5039763;28;20216;-68
2022/08/10 07:26:36;;;;;;;1.10;1.05;;;;;;;;;;5040111;28;20228;-68
2022/08/10 07:29:03;;;;;;;4.80;1.27;;;;;;;;;;5040206;28;20217;-68
2022/08/10 07:31:30;;;;;;;1.92;1.50;;;;;;;;;;5039198;28;20513;-68
2022/08/10 07:33:58;;;;;;;3.38;1.65;;;;;;;;;;5039855;28;20418;-68
2022/08/10 07:36:25;;;;;;;3.30;1.30;;;;;;;;;;5039738;28;20424;-68
2022/08/10 07:38:53;;;;;;;1.85;1.10;;;;;;;;;;5040126;28;20197;-68
2022/08/10 07:41:22;;;;;;;3.40;1.52;;;;;;;;;;5039799;28;20224;-68
2022/08/10 07:43:49;;;;;;;2.17;1.58;;;;;;;;;;5039911;28;20367;-68
2022/08/10 07:46:16;;;;;;;5.75;3.38;;;;;;;;;;5039492;28;20242;-68
2022/08/10 07:48:45;;;;;;;3.55;1.98;;;;;;;;;;5039454;28;20213;-68
2022/08/10 07:51:12;;;;;;;1.80;1.70;;;;;;;;;;5039999;28;20549;-68
2022/08/10 07:53:43;;;;;;;4.55;2.75;;;;;;;;;;5039521;28;20470;-68
2022/08/10 07:56:10;;;;;;;1.85;1.38;;;;;;;;;;5039561;28;20412;-68
2022/08/10 07:58:40;;;;;;;4.05;1.40;;;;;;;;;;5039522;28;20293;-68
2022/08/10 08:01:07;;;;;;;1.90;1.52;;;;;;;;;;5039277;28;20197;-68
2022/08/10 08:03:33;;;;;;;2.88;1.30;;;;;;;;;;5039323;28;20209;-68
2022/08/10 08:06:01;;;;;;;3.13;1.70;;;;;;;;;;5039387;28;20430;-68
2022/08/10 08:08:28;;;;;;;7.97;2.10;;;;;;;;;;5039474;28;20551;-68
2022/08/10 08:10:55;;;;;;;10.23;1.77;;;;;;;;;;5039431;28;20197;-68
2022/08/10 08:13:22;;;;;;;5.85;1.80;;;;;;;;;;5039250;28;20201;-68
2022/08/10 08:15:52;;;;;;;2.33;1.10;;;;;;;;;;5039286;28;20428;-68
2022/08/10 08:18:19;;;;;;;3.65;1.30;;;;;;;;;;5039424;28;20198;-69
2022/08/10 08:20:45;;;;;;;3.03;1.48;;;;;;;;;;5039252;28;20215;-69
2022/08/10 08:23:12;;;;;;;3.78;1.85;;;;;;;;;;5039353;28;20242;-69
2022/08/10 08:25:39;;;;;;;3.30;1.70;;;;;;;;;;5039385;28;20429;-70
2022/08/10 08:28:05;;;;;;;3.08;1.75;;;;;;;;;;5039603;28;20450;-69
2022/08/10 08:30:32;;;;;;;3.78;1.30;;;;;;;;;;5039746;28;20202;-69
2022/08/10 08:33:00;;;;;;;2.13;1.10;;;;;;;;;;5039523;28;20205;-69
2022/08/10 08:35:27;;;;;;;2.28;1.58;;;;;;;;;;5039485;28;20209;-69
2022/08/10 08:37:54;;;;;;;1.17;1.05;;;;;;;;;;5039128;28;20201;-69
2022/08/10 08:40:23;;;;;;;2.42;1.65;;;;;;;;;;5039673;28;20558;-69
2022/08/10 08:43:07;;;;;;;1.33;1.10;;;;;;;;;;5039096;28;20229;-69
2022/08/10 08:45:39;;;;;;;3.35;1.80;;;;;;;;;;5039448;28;20201;-69
2022/08/10 08:48:21;;;;;;;3.92;2.45;;;;;;;;;;5038742;28;20586;-69
2022/08/10 08:50:56;;;;;;;5.03;1.98;;;;;;;;;;5038752;28;20262;-70
2022/08/10 08:53:28;;;;;;;3.72;1.70;;;;;;;;;;5038655;28;20213;-69
2022/08/10 08:55:59;;;;;;;2.92;1.27;;;;;;;;;;5038752;28;20271;-69
2022/08/10 08:58:35;;;;;;;4.07;1.65;;;;;;;;;;5038805;28;20521;-69
2022/08/10 09:01:05;;;;;;;2.30;2.08;;;;;;;;;;5038756;28;20234;-69
2022/08/10 09:03:47;;;;;;;1.13;1.10;;;;;;;;;;5038550;28;20242;-69
2022/08/10 09:06:21;;;;;;;2.55;1.70;;;;;;;;;;5038329;28;20555;-69
2022/08/10 09:09:09;;;;;;;1.75;1.30;;;;;;;;;;5038767;28;20229;-69
2022/08/10 09:11:40;;;;;;;2.50;1.20;;;;;;;;;;5038605;28;20220;-69
2022/08/10 09:14:12;;;;;;;2.28;1.45;;;;;;;;;;5038571;28;20410;-69
2022/08/10 09:16:44;;;;;;;1.35;1.33;;;;;;;;;;5038137;28;20213;-69
2022/08/10 09:19:14;;;;;;;1.65;0.93;;;;;;;;;;5038637;28;20267;-69
2022/08/10 09:21:45;;;;;;;4.47;1.30;;;;;;;;;;5038689;28;20201;-69
2022/08/10 09:24:14;;;;;;;1.38;0.90;;;;;;;;;;5038386;28;20235;-69
2022/08/10 09:26:43;;;;;;;1.00;0.93;;;;;;;;;;5038308;28;20424;-70
2022/08/10 09:29:09;;;;;;;3.60;1.67;;;;;;;;;;5038954;28;20221;-70
2022/08/10 09:31:43;;;;;;;2.17;1.52;;;;;;;;;;5039246;28;20420;-69
2022/08/10 09:34:12;;;;;;;5.35;1.00;;;;;;;;;;5039106;28;20201;-69
2022/08/10 09:36:44;;;;;;;1.23;1.00;;;;;;;;;;5038819;28;20201;-70
2022/08/10 09:39:12;;;;;;;3.47;1.00;;;;;;;;;;5038844;28;20238;-70
2022/08/10 09:41:42;;;;;;;7.90;1.20;;;;;;;;;;5038700;28;20396;-69
2022/08/10 09:44:13;;;;;;;0.90;0.90;;;;;;;;;;5039198;28;20197;-69
2022/08/10 09:46:46;;;;;;;2.60;0.80;;;;;;;;;;5038731;28;20242;-69
2022/08/10 09:49:16;;;;;;;1.75;0.85;;;;;;;;;;5038662;28;20385;-70
2022/08/10 09:51:48;;;;;;;3.70;1.02;;;;;;;;;;5038550;28;20204;-69
2022/08/10 09:54:20;;;;;;;5.35;1.20;;;;;;;;;;5038651;28;20242;-69
2022/08/10 09:56:48;;;;;;;4.03;0.90;;;;;;;;;;5041478;28;20241;-70
2022/08/10 09:59:19;;;;;;;6.40;1.10;;;;;;;;;;5041966;28;20193;-70
2022/08/10 10:01:51;;;;;;;1.67;0.98;;;;;;;;;;5042149;28;20198;-70
2022/08/10 10:04:22;;;;;;;2.25;0.88;;;;;;;;;;5042270;28;20204;-70
2022/08/10 10:06:53;;;;;;;2.25;0.85;;;;;;;;;;5041798;28;20263;-70
2022/08/10 10:09:20;;;;;;;1.58;0.90;;;;;;;;;;5041963;28;20225;-70
2022/08/10 10:11:52;;;;;;;7.18;1.15;;;;;;;;;;5041778;28;20242;-70
2022/08/10 10:14:25;;;;;;;2.00;0.98;;;;;;;;;;5041922;28;20198;-70
2022/08/10 10:17:02;;;;;;;8.02;0.93;;;;;;;;;;5041549;28;20202;-70
2022/08/10 10:19:34;;;;;;;1.55;0.70;;;;;;;;;;5041822;28;20197;-70
2022/08/10 10:22:07;;;;;;;2.60;0.82;;;;;;;;;;5041882;28;20512;-70
2022/08/10 10:24:39;;;;;;;2.80;0.95;;;;;;;;;;5041743;28;20220;-70
2022/08/10 10:27:10;;;;;;;1.65;0.70;;;;;;;;;;5041537;28;20201;-70
2022/08/10 10:29:42;;;;;;;1.35;1.17;;;;;;;;;;5041636;28;20657;-70
2022/08/10 10:32:12;;;;;;;4.03;1.00;;;;;;;;;;5041941;28;20212;-70
2022/08/10 10:34:45;;;;;;;2.58;1.00;;;;;;;;;;5041755;28;20554;-70
2022/08/10 10:37:13;;;;;;;2.85;0.93;;;;;;;;;;5041180;28;20242;-70
2022/08/10 10:39:42;;;;;;;2.33;0.80;;;;;;;;;;5041229;28;20193;-70
2022/08/10 10:42:15;;;;;;;1.50;0.80;;;;;;;;;;5041333;28;20208;-70
2022/08/10 10:44:45;;;;;;;1.02;0.98;;;;;;;;;;5041526;28;20205;-70
2022/08/10 10:47:20;;;;;;;1.40;0.88;;;;;;;;;;5041303;28;20505;-70
2022/08/10 10:49:49;;;;;;;1.50;0.90;;;;;;;;;;5041269;28;20588;-70
2022/08/10 10:52:20;;;;;;;2.20;0.85;;;;;;;;;;5041087;28;20201;-70
2022/08/10 10:54:50;;;;;;;3.00;0.98;;;;;;;;;;5041213;28;20274;-70
2022/08/10 10:57:21;;;;;;;1.13;0.93;;;;;;;;;;5041019;28;20197;-70
2022/08/10 10:59:52;;;;;;;7.82;0.90;;;;;;;;;;5041089;28;20410;-70
2022/08/10 11:02:26;;;;;;;1.27;0.90;;;;;;;;;;5041135;28;20501;-70
2022/08/10 11:04:57;;;;;;;1.55;1.00;;;;;;;;;;5040864;28;20217;-70
2022/08/10 11:07:28;;;;;;;1.83;0.65;;;;;;;;;;5040642;28;20201;-70
2022/08/10 11:09:56;;;;;;;1.80;0.73;;;;;;;;;;5040968;28;20225;-70
2022/08/10 11:12:25;;;;;;;1.73;0.80;;;;;;;;;;5040876;28;20438;-70
2022/08/10 11:14:55;;;;;;;3.50;0.95;;;;;;;;;;5040849;28;20204;-70
2022/08/10 11:17:25;;;;;;;2.45;0.85;;;;;;;;;;5040525;28;20196;-70
2022/08/10 11:19:54;;;;;;;3.97;0.90;;;;;;;;;;5040784;28;20246;-70
2022/08/10 11:22:28;;;;;;;1.30;0.90;;;;;;;;;;5041146;28;20240;-70
2022/08/10 11:24:58;;;;;;;3.13;0.88;;;;;;;;;;5040632;28;20235;-70
2022/08/10 11:27:30;;;;;;;3.63;0.82;;;;;;;;;;5040504;28;20246;-70
2022/08/10 11:29:58;;;;;;;3.15;0.95;;;;;;;;;;5040663;28;20442;-70
2022/08/10 11:32:28;;;;;;;1.90;0.85;;;;;;;;;;5040834;28;20197;-70
2022/08/10 11:34:59;;;;;;;1.55;0.80;;;;;;;;;;5040745;28;20198;-70
2022/08/10 11:37:29;;;;;;;4.03;0.90;;;;;;;;;;5040426;28;20205;-70
2022/08/10 11:39:59;;;;;;;2.38;0.80;;;;;;;;;;5040419;28;20227;-70
2022/08/10 11:42:31;;;;;;;3.20;0.90;;;;;;;;;;5040372;28;20197;-70
2022/08/10 11:45:00;;;;;;;2.17;1.02;;;;;;;;;;5040744;28;20225;-70
2022/08/10 11:47:33;;;;;;;1.20;0.80;;;;;;;;;;5040022;28;20235;-70
2022/08/10 11:50:03;;;;;;;8.80;1.20;;;;;;;;;;5040807;28;20224;-70
2022/08/10 11:52:34;;;;;;;6.38;1.45;;;;;;;;;;5040603;28;20421;-70
2022/08/10 11:55:09;;;;;;;2.03;0.85;;;;;;;;;;5027867;27;20225;-70
2022/08/10 11:57:36;;;;;;;2.63;0.90;;;;;;;;;;5033569;28;20228;-70
2022/08/10 12:00:02;;;;;;;1.25;1.00;;;;;;;;;;5034297;27;20201;-70
2022/08/10 12:02:31;;;;;;;6.55;1.02;;;;;;;;;;5017166;28;20233;-70
2022/08/10 12:05:01;;;;;;;3.72;0.70;;;;;;;;;;5014478;28;20230;-70
2022/08/10 12:07:29;;;;;;;5.35;0.80;;;;;;;;;;5013922;28;20432;-70
2022/08/10 12:09:56;;;;;;;3.90;0.98;;;;;;;;;;5014504;28;20602;-70
2022/08/10 12:12:24;;;;;;;3.15;1.00;;;;;;;;;;5048108;27;20254;-70
2022/08/10 12:14:54;;;;;;;1.27;0.90;;;;;;;;;;5138256;27;20247;-70
2022/08/10 12:17:23;;;;;;;2.58;0.90;;;;;;;;;;5137554;27;20513;-70
2022/08/10 12:19:54;;;;;;;3.13;0.70;;;;;;;;;;5137848;27;20206;-70
2022/08/10 12:22:22;;;;;;;3.72;1.75;;;;;;;;;;5138631;27;20206;-70
2022/08/10 12:24:51;;;;;;;2.20;1.20;;;;;;;;;;5138228;27;20250;-70
2022/08/10 12:27:20;;;;;;;0.82;0.68;;;;;;;;;;5137278;27;20202;-70
2022/08/10 12:29:51;;;;;;;1.25;0.88;;;;;;;;;;5137830;27;20221;-70
2022/08/10 12:32:22;;;;;;;2.47;0.73;;;;;;;;;;5088958;27;20238;-70
2022/08/10 12:34:50;;;;;;;2.75;0.90;;;;;;;;;;5039957;27;20368;-70
2022/08/10 12:37:19;;;;;;;1.77;0.85;;;;;;;;;;5033668;28;20547;-70
2022/08/10 12:39:51;;;;;;;4.28;1.17;;;;;;;;;;5129441;27;20467;-70
2022/08/10 12:42:19;;;;;;;2.88;0.90;;;;;;;;;;5137392;27;20238;-70
2022/08/10 12:44:48;;;;;;;1.48;1.40;;;;;;;;;;5137327;27;20315;-70
2022/08/10 12:47:19;;;;;;;2.42;0.90;;;;;;;;;;5137135;27;20206;-70
2022/08/10 12:49:49;;;;;;;0.88;0.88;;;;;;;;;;5134743;27;20218;-70
2022/08/10 12:52:17;;;;;;;2.42;0.93;;;;;;;;;;5033333;28;20215;-70
2022/08/10 12:54:44;;;;;;;2.83;1.00;;;;;;;;;;5033389;28;20217;-70
2022/08/10 12:57:11;;;;;;;2.10;1.08;;;;;;;;;;5033353;28;20235;-69
2022/08/10 12:59:41;;;;;;;4.20;1.38;;;;;;;;;;5033468;28;20205;-69
2022/08/10 13:02:09;;;;;;;5.68;1.20;;;;;;;;;;5033409;28;20209;-69
2022/08/10 13:04:38;;;;;;;3.55;0.85;;;;;;;;;;5033610;28;20248;-69
2022/08/10 13:07:05;;;;;;;0.80;0.80;;;;;;;;;;5033578;28;20213;-69
2022/08/10 13:09:32;;;;;;;5.50;1.98;;;;;;;;;;5033318;28;20223;-69
2022/08/10 13:12:01;;;;;;;1.55;0.90;;;;;;;;;;5033057;28;20209;-69
2022/08/10 13:14:29;;;;;;;2.67;0.80;;;;;;;;;;5033331;28;20209;-69
2022/08/10 13:16:56;;;;;;;3.90;1.48;;;;;;;;;;5033237;28;20636;-69
2022/08/10 13:19:22;;;;;;;2.80;0.85;;;;;;;;;;5033178;28;20569;-70
2022/08/10 13:21:51;;;;;;;2.20;0.98;;;;;;;;;;5032949;28;20216;-69
2022/08/10 13:24:22;;;;;;;0.75;0.75;;;;;;;;;;5032709;28;20254;-69
2022/08/10 13:26:50;;;;;;;3.10;1.00;;;;;;;;;;5042605;28;20250;-69
2022/08/10 13:29:17;;;;;;;3.22;1.00;;;;;;;;;;5071064;28;20225;-69
2022/08/10 13:31:44;;;;;;;3.67;0.80;;;;;;;;;;5038888;28;20250;-70
2022/08/10 13:34:16;;;;;;;0.85;0.85;;;;;;;;;;5038553;28;20209;-70
2022/08/10 13:36:43;;;;;;;2.42;0.90;;;;;;;;;;5039208;28;20528;-69
2022/08/10 13:39:12;;;;;;;1.40;0.73;;;;;;;;;;5039850;28;20250;-69
2022/08/10 13:41:40;;;;;;;0.90;0.90;;;;;;;;;;5039866;28;20205;-69
2022/08/10 13:44:07;;;;;;;1.95;0.90;;;;;;;;;;5039073;28;20266;-72
2022/08/10 13:46:36;;;;;;;4.35;1.00;;;;;;;;;;5038825;28;20521;-64
2022/08/10 13:49:03;;;;;;;1.17;1.00;;;;;;;;;;5039004;28;20276;-62
2022/08/10 13:51:34;;;;;;;3.22;1.00;;;;;;;;;;5039026;28;20598;-64
2022/08/10 13:54:01;;;;;;;0.68;0.68;;;;;;;;;;5038979;28;20258;-63
2022/08/10 13:56:29;;;;;;;5.93;1.08;;;;;;;;;;5038772;28;20231;-64
2022/08/10 13:58:56;;;;;;;7.18;0.93;;;;;;;;;;5038930;28;20441;-64
2022/08/10 14:01:24;;;;;;;4.38;0.98;;;;;;;;;;5039084;28;20435;-64
2022/08/10 14:03:51;;;;;;;8.68;6.60;;;;;;;;;;5038758;28;20567;-63
2022/08/10 14:06:18;;;;;;;7.10;1.48;;;;;;;;;;5038978;28;20291;-63
2022/08/10 14:08:46;;;;;;;3.45;1.25;;;;;;;;;;5038801;28;20208;-63
2022/08/10 14:11:14;;;;;;;1.00;0.75;;;;;;;;;;5038811;28;20462;-70
2022/08/10 14:13:42;;;;;;;5.05;1.05;;;;;;;;;;5038805;28;20211;-71
2022/08/10 14:16:10;;;;;;;1.48;1.02;;;;;;;;;;5038568;28;20352;-71
2022/08/10 14:18:37;;;;;;;4.63;1.10;;;;;;;;;;5038522;28;20486;-71
2022/08/10 14:21:03;;;;;;;0.77;0.77;;;;;;;;;;5038603;28;20208;-71
2022/08/10 14:23:31;;;;;;;4.15;1.33;;;;;;;;;;5038793;28;20205;-72
2022/08/10 14:25:59;;;;;;;0.85;0.80;;;;;;;;;;5038585;28;20250;-72
2022/08/10 14:28:26;;;;;;;4.25;1.00;;;;;;;;;;5133013;27;20202;-72
2022/08/10 14:30:59;;;;;;;6.82;1.00;;;;;;;;;;5142823;27;20217;-72
2022/08/10 14:33:26;;;;;;;0.90;0.80;;;;;;;;;;5143240;27;20554;-72
2022/08/10 14:35:53;;;;;;;2.05;0.90;;;;;;;;;;5142530;27;20201;-72
2022/08/10 14:38:21;;;;;;;3.03;0.80;;;;;;;;;;5142908;27;20209;-71
2022/08/10 14:40:53;;;;;;;1.08;0.80;;;;;;;;;;5142284;27;20197;-71
2022/08/10 14:43:22;;;;;;;1.45;0.75;;;;;;;;;;5142750;27;20201;-71
2022/08/10 14:45:54;;;;;;;3.60;0.90;;;;;;;;;;5142615;27;20382;-71
2022/08/10 14:48:23;;;;;;;1.08;0.70;;;;;;;;;;5141353;27;20201;-71
2022/08/10 14:50:51;;;;;;;0.85;0.85;;;;;;;;;;5134987;27;20254;-71